• Join FlightAware (Why Join?)
  • Login
  • US Flag 
10:45PM EDT


 

Airport Tracker/Info


-or-


 

Live Flight TrackerFlight Track Log ✈ PDT4166 ✈ 05-Jun-2013 ✈ KPHL - KSYR

Flight Track Log - Related Links

Times and Time Zones

All times are in EDT time to prevent confusion due to time zone crossing. See the PDT4166 flight status page for this flight to view local times or setup timezone preferences in your user account.

Time Position Orientation Groundspeed Altitude Reporting Facility
EDT Latitude Longitude Course Direction KTS MPH feet Rate Location/Type
05:08PM 39.8667 -75.2833 311° West 133 153 900  Level Philadelphia TRACON
05:09PM 39.8667 -75.3000 270° West 135 155 1,700 1,380 Climbing Philadelphia TRACON
05:10PM 39.8833 -75.3500 293° West 147 169 3,200 1,320 Climbing Philadelphia TRACON
05:11PM 40.0360 -75.3860 323° Northwest  Level FlightAware Approximate
05:11PM 39.8881 -75.3781 282° West 144 166 3,800  Level New York Center
05:12PM 40.0961 -75.4314 339° North  Level FlightAware Approximate
05:12PM 39.9047 -75.4333 291° West 144 166 5,200  Level New York Center
05:13PM 40.1449 -75.4949 323° Northwest  Level FlightAware Approximate
05:13PM 39.9153 -75.4803 286° West 144 166 6,400  Level New York Center
05:14PM 40.1976 -75.5463 311° West  Level FlightAware Approximate
05:14PM 39.9319 -75.5328 293° West 154 177 7,500  Level New York Center
05:15PM 39.9778 -75.5331 360° North 173 199 8,600 720 Climbing New York Center
05:16PM 40.0317 -75.5422 353° North 193 222 9,000 840 Climbing New York Center
05:17PM 40.0794 -75.5428 359° North 191 220 10,300 900 Climbing New York Center
05:18PM 40.1317 -75.5436 359° North 210 242 10,900 660 Climbing New York Center
05:19PM 40.1856 -75.5500 355° North 210 242 11,700 540 Climbing New York Center
05:20PM 40.2389 -75.5672 346° North 199 229 12,000 120 Climbing New York Center
05:21PM 40.2719 -75.6294 305° West 187 215 12,000 360 Level New York Center
05:22PM 40.3119 -75.6703 322° Northwest 207 238 12,800 720 Climbing New York Center
05:23PM 40.3628 -75.6986 337° Northwest 197 227 13,500 660 Climbing New York Center
05:24PM 40.4158 -75.7297 336° Northwest 192 221 14,200 660 Climbing New York Center
05:25PM 40.4689 -75.7553 340° North 192 221 14,900 660 Climbing New York Center
05:26PM 40.5175 -75.7861 334° Northwest 192 221 15,500 540 Climbing New York Center
05:27PM 40.5622 -75.8139 335° Northwest 192 221 16,000 240 Climbing New York Center
05:28PM 40.6153 -75.8425 338° Northwest 198 228 16,000  Level New York Center
05:29PM 40.6781 -75.8828 334° Northwest 209 241 16,000  Level New York Center
05:30PM 40.7372 -75.9144 338° Northwest 224 258 16,000  Level New York Center
05:31PM 40.7897 -75.9486 334° Northwest 237 273 16,000  Level New York Center
05:32PM 40.8464 -75.9858 334° Northwest 232 267 16,000  Level New York Center
05:33PM 40.9075 -76.0181 338° Northwest 232 267 16,000  Level New York Center
05:34PM 40.9728 -76.0533 338° Northwest 232 267 16,000  Level New York Center
05:35PM 41.0314 -76.0908 334° Northwest 232 267 16,000  Level New York Center
05:36PM 41.0903 -76.1231 338° Northwest 232 267 16,000  Level New York Center
05:37PM 41.1492 -76.1581 336° Northwest 232 267 16,000  Level New York Center
05:38PM 41.2019 -76.1897 336° Northwest 232 267 16,000  Level New York Center
05:39PM 41.2633 -76.2111 345° North 232 267 16,000  Level New York Center
05:40PM 41.3369 -76.2006 North 238 274 16,000  Level New York Center
05:41PM 41.4056 -76.2006 360° North 238 274 16,000  Level New York Center
05:42PM 41.4725 -76.1947 North 238 274 16,000  Level New York Center
05:43PM 41.5314 -76.1831 North 238 274 16,000  Level New York Center
05:44PM 41.5981 -76.1800 North 238 274 16,000  Level New York Center
05:45PM 41.6733 -76.1750 North 238 274 16,000  Level New York Center
05:46PM 41.7383 -76.1636 North 238 274 16,000  Level New York Center
05:47PM 41.8050 -76.1664 358° North 238 274 16,000  Level New York Center
05:48PM 41.8656 -76.1628 North 233 268 16,000  Level New York Center
05:49PM 41.9306 -76.1542 North 233 268 16,000  Level New York Center
05:50PM 42.0033 -76.1544 360° North 239 275 16,000  Level New York Center
05:51PM 42.0683 -76.1458 North 233 268 16,000 -360 Level New York Center
05:52PM 42.1350 -76.1400 North 233 268 15,300 -900 Descending New York Center
05:53PM 42.2042 -76.1317 North 233 268 14,300 -1,020 Descending New York Center
05:54PM 42.2692 -76.1203 North 233 268 13,300 -1,020 Descending New York Center
05:55PM 42.3806 -76.1139 North 260 299 11,700 -960 Descending Boston Center
05:56PM 42.4497 -76.1039 North 268 308 11,000 -420 Descending Boston Center
05:57PM 42.5167 -76.0967 North 247 284 11,000  Level Boston Center
05:58PM 42.5753 -76.0917 North 231 266 11,000 -600 Level Boston Center
05:59PM 42.6536 -76.1161 347° North 249 287 9,800 -1,080 Descending Boston Center
06:00PM 42.7239 -76.1372 348° North 261 300 8,800 -1,140 Descending Boston Center
06:01PM 42.7939 -76.1611 346° North 271 312 7,600 -1,200 Descending Boston Center
06:02PM 42.8639 -76.1881 344° North 261 300 6,400 -1,200 Descending Boston Center
06:03PM 42.9303 -76.2006 352° North 253 291 5,300 -1,200 Descending Boston Center
06:04PM 43.0028 -76.2164 351° North 239 275 4,000 -1,200 Descending Boston Center
06:05PM 43.0561 -76.2369 344° North 217 250 2,900 -1,200 Descending Boston Center